EA5CEE Santa Pola ES current weather conditions

sailwx.info

Wind from 255 at 4 knots gusting 6

Air temperature 23.9° C
Dewpoint 21.2° C

Last reported at 2019-Sep-21 21:01 UTC.
Time now 2019-Sep-21 21:23 UTC

Location: N 38°13' W 000°31'.
View on Google Maps.

See reports from other nearby stations

  
Tides and Currents Weather Stations Pressure Air Temp Water Temp Dewpoint Dewpoint Depression Visibility Wind Speed Wind Dir Waves Ship Positions
date/time (UTC)wind fromknots sea level pressurealtimeterstation pressurevisibilityair tempwater tempwave heightnotes
2019-Sep-21 21:01 255 4 gusting 6 23.9
2019-Sep-21 20:45 242 1 gusting 3 23.9
2019-Sep-21 20:30 257 3 gusting 6 23.9
2019-Sep-21 20:15 221 0 gusting 1 23.9
2019-Sep-21 20:00 235 1 gusting 4 23.9
2019-Sep-21 19:46 280 1 gusting 2 24.4
2019-Sep-21 19:30 075 24.4
2019-Sep-21 19:15 197 2 gusting 6 24.4
2019-Sep-21 19:00 222 6 gusting 11 24.4
2019-Sep-21 18:45 219 6 gusting 10 24.4
2019-Sep-21 18:30 218 7 gusting 12 24.4
2019-Sep-21 18:15 243 6 gusting 12 24.4
2019-Sep-21 18:00 231 6 gusting 12 24.4
2019-Sep-21 17:45 243 6 gusting 13 23.9
2019-Sep-21 17:30 214 9 gusting 13 23.9
2019-Sep-21 17:15 204 11 gusting 15 23.9
2019-Sep-21 17:00 221 9 gusting 15 24.4
2019-Sep-21 16:45 231 8 gusting 13 24.4
2019-Sep-21 16:30 212 8 gusting 13 24.4
2019-Sep-21 16:15 290 10 gusting 16 25.0
2019-Sep-21 16:01 195 10 gusting 15 25.0
2019-Sep-21 15:46 215 7 gusting 14 25.0
2019-Sep-21 15:31 215 9 gusting 15 25.0
2019-Sep-21 15:16 225 8 gusting 14 25.6
2019-Sep-21 15:03 218 8 gusting 13 25.6
2019-Sep-21 14:46 204 8 gusting 16 25.6
2019-Sep-21 14:31 212 6 gusting 10 25.6
2019-Sep-21 14:17 194 6 gusting 11 25.6
2019-Sep-21 14:01 240 7 gusting 12 25.6
2019-Sep-21 13:46 190 8 gusting 13 25.6
2019-Sep-21 13:31 222 6 gusting 13 26.1
2019-Sep-21 13:16 230 8 gusting 12 25.6
2019-Sep-21 13:01 217 6 gusting 11 26.1
2019-Sep-21 12:47 180 6 gusting 11 26.7
2019-Sep-21 12:31 177 6 gusting 10 26.7
2019-Sep-21 12:16 246 4 gusting 11 26.7
2019-Sep-21 12:01 217 6 gusting 8 26.1
2019-Sep-21 11:46 204 4 gusting 8 26.7
2019-Sep-21 11:30 223 4 gusting 10 26.7
2019-Sep-21 11:16 207 4 gusting 8 26.7
2019-Sep-21 11:01 197 3 gusting 8 26.1
2019-Sep-21 10:46 192 3 gusting 10 26.1
2019-Sep-21 10:31 203 4 gusting 9 26.1
2019-Sep-21 10:01 269 4 gusting 10 25.6
2019-Sep-21 09:46 269 5 gusting 9 25.6
2019-Sep-21 09:30 245 6 gusting 8 25.0
2019-Sep-21 09:16 235 5 gusting 8 25.0
2019-Sep-21 09:00 266 3 25.0
2019-Sep-21 08:45 232 3 gusting 6 24.4
2019-Sep-21 08:31 280 4 gusting 7 24.4
2019-Sep-21 08:15 283 4 gusting 6 24.4
2019-Sep-21 08:00 277 4 gusting 6 23.9
2019-Sep-21 07:45 274 2 gusting 5 23.3
2019-Sep-21 07:30 256 2 gusting 3 22.8
2019-Sep-21 07:15 269 1 gusting 3 22.2
2019-Sep-21 07:00 262 1 gusting 3 22.2
2019-Sep-21 06:45 277 0 gusting 1 22.2
2019-Sep-21 06:30 274 0 gusting 1 22.2
2019-Sep-21 06:15 267 0 gusting 2 22.2
2019-Sep-21 06:00 300 22.2
2019-Sep-21 05:45 305 0 gusting 3 21.7
2019-Sep-21 05:30 269 21.7
2019-Sep-21 05:15 319 1 gusting 4 22.2
2019-Sep-21 05:01 043 3 gusting 8 22.8
2019-Sep-21 04:47 058 5 gusting 7 22.8
2019-Sep-21 04:31 071 7 gusting 11 22.8
2019-Sep-21 04:16 051 5 gusting 8 22.8
2019-Sep-21 04:04 058 7 gusting 11 22.8
2019-Sep-21 03:46 019 5 gusting 7 22.8
2019-Sep-21 03:32 075 6 gusting 9 22.8
2019-Sep-21 03:16 070 5 gusting 6 22.8
2019-Sep-21 03:01 058 4 gusting 6 22.8
2019-Sep-21 02:47 037 4 gusting 6 22.8
2019-Sep-21 02:32 069 4 gusting 7 22.8
2019-Sep-21 02:17 056 3 gusting 7 22.8
2019-Sep-21 02:01 049 6 gusting 10 22.8
2019-Sep-21 01:46 041 6 gusting 9 22.8
2019-Sep-21 01:31 065 6 gusting 10 22.8
2019-Sep-21 01:16 023 6 gusting 9 23.3
2019-Sep-21 01:01 056 6 gusting 10 23.3
2019-Sep-21 00:46 063 4 gusting 9 22.8
2019-Sep-21 00:31 063 6 gusting 9 23.3
2019-Sep-21 00:16 070 4 gusting 8 23.3
2019-Sep-21 00:00 061 4 gusting 8 23.3
2019-Sep-20 23:46 063 5 gusting 9 23.3
2019-Sep-20 23:31 034 4 gusting 12 23.3
2019-Sep-20 23:16 068 8 gusting 11 23.3
2019-Sep-20 23:00 072 8 gusting 11 23.3
2019-Sep-20 22:45 076 9 gusting 13 23.3
2019-Sep-20 22:31 072 8 gusting 13 22.8
2019-Sep-20 22:16 046 9 gusting 13 23.3
2019-Sep-20 22:00 072 11 gusting 17 23.3
2019-Sep-20 21:46 061 13 gusting 16 23.3
2019-Sep-20 21:30 087 12 gusting 16 23.3
2019-Sep-20 21:15 068 10 gusting 15 23.3
2019-Sep-20 21:00 063 9 gusting 14 23.3
2019-Sep-20 20:46 044 9 gusting 16 23.3
2019-Sep-20 20:30 038 9 gusting 14 23.3
2019-Sep-20 20:15 058 6 gusting 12 23.3
2019-Sep-20 20:00 046 5 gusting 9 23.3
2019-Sep-20 19:45 050 4 gusting 9 23.3
2019-Sep-20 19:30 055 3 gusting 7 23.3
2019-Sep-20 19:15 068 7 gusting 11 23.3
2019-Sep-20 19:00 057 6 gusting 12 23.3
2019-Sep-20 18:45 065 8 gusting 13 23.3
2019-Sep-20 18:30 044 8 gusting 13 23.3
2019-Sep-20 18:15 050 7 gusting 13 23.3
2019-Sep-20 18:00 075 9 gusting 14 23.3
2019-Sep-20 17:45 056 12 gusting 14 23.3
2019-Sep-20 17:30 062 7 gusting 12 23.3
2019-Sep-20 17:15 080 7 gusting 13 23.3
2019-Sep-20 17:01 047 9 gusting 13 23.3
2019-Sep-20 16:47 062 12 gusting 14 23.3
2019-Sep-20 16:33 059 9 gusting 15 23.3
2019-Sep-20 16:17 023 9 gusting 14 23.3
2019-Sep-20 16:01 110 9 gusting 15 23.3
2019-Sep-20 15:47 070 10 gusting 16 23.9
2019-Sep-20 15:31 063 13 gusting 18 23.9
2019-Sep-20 15:17 065 13 gusting 18 23.9
2019-Sep-20 15:02 065 12 gusting 17 23.9
2019-Sep-20 14:46 056 11 gusting 15 23.9
2019-Sep-20 14:32 079 13 gusting 15 23.9
2019-Sep-20 14:16 071 12 gusting 15 23.9
2019-Sep-20 14:02 087 11 gusting 15 23.9
2019-Sep-20 13:45 062 9 gusting 13 23.9
2019-Sep-20 13:31 055 9 gusting 13 24.4
2019-Sep-20 13:16 079 11 gusting 16 24.4
2019-Sep-20 13:01 068 9 gusting 13 23.9
2019-Sep-20 12:46 057 10 gusting 16 24.4
2019-Sep-20 12:30 068 11 gusting 15 23.9
2019-Sep-20 12:16 076 10 gusting 17 23.9
2019-Sep-20 12:01 082 11 gusting 17 23.9
2019-Sep-20 11:46 091 12 gusting 15 23.9
2019-Sep-20 11:30 065 13 gusting 16 23.9
2019-Sep-20 11:16 070 12 gusting 17 23.9
2019-Sep-20 11:00 079 12 gusting 15 23.9
2019-Sep-20 10:46 082 12 gusting 16 23.9
2019-Sep-20 10:31 072 13 gusting 16 23.9
2019-Sep-20 10:16 072 14 gusting 17 23.9
2019-Sep-20 10:01 079 13 gusting 18 23.9
2019-Sep-20 09:45 072 13 gusting 16 23.9
2019-Sep-20 09:31 071 15 gusting 19 23.9
2019-Sep-20 09:15 076 12 gusting 17 23.9
2019-Sep-20 09:00 093 13 gusting 17 23.9
2019-Sep-20 08:45 068 13 gusting 18 23.9
2019-Sep-20 08:31 068 13 gusting 16 23.9
2019-Sep-20 08:15 079 13 gusting 17 23.9
2019-Sep-20 08:00 062 6 gusting 11 23.9
2019-Sep-20 07:45 054 8 gusting 11 23.9
2019-Sep-20 07:30 108 7 gusting 13 23.3
2019-Sep-20 07:15 049 6 gusting 11 23.3
2019-Sep-20 07:00 050 6 gusting 10 23.3
2019-Sep-20 06:45 054 6 gusting 11 22.8
2019-Sep-20 06:30 041 6 gusting 9 22.8
2019-Sep-20 06:15 032 6 gusting 10 22.2
2019-Sep-20 06:00 068 3 gusting 7 22.2
2019-Sep-20 05:49 043 4 gusting 6 22.2
2019-Sep-20 05:32 034 2 gusting 4 22.2
2019-Sep-20 05:17 027 1 gusting 2 22.2
2019-Sep-20 05:01 359 1 gusting 2 22.2
2019-Sep-20 04:46 329 0 22.2
2019-Sep-20 04:31 323 22.2
2019-Sep-20 04:16 262 22.2
2019-Sep-20 04:01 262 22.2
2019-Sep-20 03:46 332 22.2
2019-Sep-20 03:31 359 22.2
2019-Sep-20 03:16 056 2 gusting 5 22.2
2019-Sep-20 03:01 049 2 gusting 6 22.2
2019-Sep-20 02:46 051 1 gusting 6 22.8
2019-Sep-20 02:31 043 6 gusting 8 22.8
2019-Sep-20 02:16 061 3 gusting 7 22.8
2019-Sep-20 02:03 059 3 gusting 7 22.2
2019-Sep-20 01:46 070 5 gusting 6 22.8
2019-Sep-20 01:31 050 3 gusting 6 22.8
2019-Sep-20 01:17 062 4 gusting 8 22.8
2019-Sep-20 01:01 039 6 gusting 9 22.8
2019-Sep-20 00:46 080 3 gusting 7 22.8
2019-Sep-20 00:31 068 5 gusting 9 22.8
2019-Sep-20 00:15 069 6 gusting 8 22.8
2019-Sep-20 00:01 050 6 gusting 7 22.8
2019-Sep-19 23:46 067 6 gusting 9 22.8
2019-Sep-19 23:30 041 6 gusting 10 22.8
2019-Sep-19 23:15 067 5 gusting 8 22.8
2019-Sep-19 23:00 075 6 gusting 10 22.8
2019-Sep-19 22:45 067 5 gusting 8 22.8
2019-Sep-19 22:30 043 4 gusting 7 22.8
2019-Sep-19 22:15 082 4 gusting 6 22.8
2019-Sep-19 22:00 075 3 gusting 6 22.8
2019-Sep-19 21:45 078 3 gusting 6 22.8
2019-Sep-19 21:30 072 5 gusting 6 22.8
2019-Sep-19 21:15 075 4 gusting 6 22.8
2019-Sep-19 21:00 043 4 gusting 6 22.8